Legasea — LEGASEA — position and weather

sailwx.info

Track history (hours):
 
Tides and Currents Weather Stations Pressure Air Temp Water Temp Dewpoint Dewpoint Depression Visibility Wind Speed Wind Dir Waves Ship Positions

Legasea

Last reported at 2017-Oct-17 18:35 UTC. Time now 2017-Oct-19 03:53 UTC.
Position N 32°29' W 117°36'.

Type: Pleasure craft. MMSI: 338301307.

Date/timePositionNaut miles runAvg speedWind from/ knotsBaromVisibWave heightAir tempDewpointWater temp
2017-Oct-17 18:35N 32°29' W 117°36'1 6.5
2017-Oct-17 18:27N 32°29' W 117°35'2 3.0
2017-Oct-17 17:50N 32°31' W 117°35'2 5.0
2017-Oct-17 17:28N 32°31' W 117°38'3 6.8
2017-Oct-17 17:00N 32°31' W 117°41'13 5.2
2017-Oct-17 14:36N 32°43' W 117°37'2 7.5
2017-Oct-17 14:20N 32°43' W 117°35'3 9.3
2017-Oct-17 14:00N 32°44' W 117°31'5 9.5
2017-Oct-17 13:30N 32°44' W 117°25'5 9.1
2017-Oct-17 13:00N 32°44' W 117°20'5 0.1
2017-Oct-15 18:05N 32°46' W 117°14'0 0.0
2017-Oct-15 17:47N 32°46' W 117°14'0 0.0
2017-Oct-15 17:11N 32°46' W 117°14'0 0.0
2017-Oct-15 16:53N 32°46' W 117°14'0 0.0
2017-Oct-15 16:29N 32°46' W 117°14'0 0.0
2017-Oct-15 15:59N 32°46' W 117°14'0 0.0
2017-Oct-15 15:29N 32°46' W 117°14'0 0.0
2017-Oct-15 14:59N 32°46' W 117°14'0 0.0
2017-Oct-15 13:59N 32°46' W 117°14'0 0.0
2017-Oct-15 13:29N 32°46' W 117°14'0 0.0
2017-Oct-15 12:59N 32°46' W 117°14'0 0.0
2017-Oct-15 12:29N 32°46' W 117°14'0 0.0
2017-Oct-15 11:59N 32°46' W 117°14'0 0.0
2017-Oct-15 11:23N 32°46' W 117°14'0 0.0
2017-Oct-15 10:59N 32°46' W 117°14'0 0.0
2017-Oct-15 10:29N 32°46' W 117°14'0 0.0
2017-Oct-15 09:59N 32°46' W 117°14'0 0.0
2017-Oct-15 09:29N 32°46' W 117°14'0 0.0
2017-Oct-15 08:59N 32°46' W 117°14'0 0.0
2017-Oct-15 08:29N 32°46' W 117°14'0 0.0
2017-Oct-15 07:59N 32°46' W 117°14'0 0.0
2017-Oct-15 07:20N 32°46' W 117°14'0 0.0
2017-Oct-15 06:59N 32°46' W 117°14'0 0.0
2017-Oct-15 06:29N 32°46' W 117°14'0 0.0
2017-Oct-15 05:56N 32°46' W 117°14'0 0.0
2017-Oct-15 05:23N 32°46' W 117°14'0 0.0
2017-Oct-15 04:59N 32°46' W 117°14'0 0.0
2017-Oct-15 04:29N 32°46' W 117°14'0 0.0
2017-Oct-15 03:59N 32°46' W 117°14'0 0.0
2017-Oct-15 03:29N 32°46' W 117°14'0 0.0
2017-Oct-15 02:53N 32°46' W 117°14'0 0.0
2017-Oct-15 02:29N 32°46' W 117°14'0 0.0
2017-Oct-15 01:53N 32°46' W 117°14'0 0.0
2017-Oct-15 01:23N 32°46' W 117°14'0 0.0
2017-Oct-15 00:59N 32°46' W 117°14'0 0.0
2017-Oct-15 00:29N 32°46' W 117°14'0 0.0
2017-Oct-14 23:59N 32°46' W 117°14'0 0.0
2017-Oct-14 23:29N 32°46' W 117°14'0 0.0
2017-Oct-14 22:59N 32°46' W 117°14'0 0.0
2017-Oct-14 22:29N 32°46' W 117°14'0 0.0
2017-Oct-14 21:41N 32°46' W 117°14'0 0.0
2017-Oct-14 21:23N 32°46' W 117°14'0 0.0
2017-Oct-14 20:47N 32°46' W 117°14'0 0.0
2017-Oct-14 19:47N 32°46' W 117°14'0 0.0
2017-Oct-14 19:29N 32°46' W 117°14'0 0.0
2017-Oct-14 18:29N 32°46' W 117°14'0 0.0
2017-Oct-14 17:59N 32°46' W 117°14'0 0.0
2017-Oct-14 17:29N 32°46' W 117°14'0 0.0
2017-Oct-14 16:59N 32°46' W 117°14'0 0.0
2017-Oct-14 16:23N 32°46' W 117°14'0 0.0
2017-Oct-14 15:59N 32°46' W 117°14'0 0.0
2017-Oct-14 15:29N 32°46' W 117°14'0 0.0
2017-Oct-14 14:53N 32°46' W 117°14'0 0.0
2017-Oct-14 14:23N 32°46' W 117°14'0 0.0
2017-Oct-14 13:59N 32°46' W 117°14'0 0.0
2017-Oct-14 13:23N 32°46' W 117°14'0 0.0
2017-Oct-14 12:41N 32°46' W 117°14'0 0.0
2017-Oct-14 12:23N 32°46' W 117°14'0 0.0
2017-Oct-14 11:59N 32°46' W 117°14'0 0.0
2017-Oct-14 11:17N 32°46' W 117°14'0 0.0
2017-Oct-14 10:47N 32°46' W 117°14'0 0.0
2017-Oct-14 10:29N 32°46' W 117°14'0 0.0
2017-Oct-14 09:59N 32°46' W 117°14'0 0.0
2017-Oct-14 09:29N 32°46' W 117°14'0 0.0
2017-Oct-14 08:23N 32°46' W 117°14'0 0.0
2017-Oct-14 07:59N 32°46' W 117°14'0 0.0
2017-Oct-14 07:29N 32°46' W 117°14'0 0.0
2017-Oct-14 06:53N 32°46' W 117°14'0 0.0
2017-Oct-14 06:17N 32°46' W 117°14'0 0.0
2017-Oct-14 05:47N 32°46' W 117°14'0 0.0
2017-Oct-14 05:29N 32°46' W 117°14'0 0.0
2017-Oct-14 04:35N 32°46' W 117°14'0 0.0
2017-Oct-14 04:17N 32°46' W 117°14'0 0.0
2017-Oct-14 03:53N 32°46' W 117°14'0 0.0
2017-Oct-14 03:29N 32°46' W 117°14'0 0.0
2017-Oct-14 02:53N 32°46' W 117°14'0 0.0
2017-Oct-14 02:29N 32°46' W 117°14'0 0.0
2017-Oct-14 01:59N 32°46' W 117°14'0 0.0
2017-Oct-14 01:29N 32°46' W 117°14'0 0.0
2017-Oct-14 00:59N 32°46' W 117°14'0 0.0
2017-Oct-14 00:29N 32°46' W 117°14'0 0.0
2017-Oct-13 23:47N 32°46' W 117°14'0 0.0
2017-Oct-13 23:23N 32°46' W 117°14'0 0.0
2017-Oct-13 22:47N 32°46' W 117°14'0 0.0
2017-Oct-13 22:29N 32°46' W 117°14'0 0.0
2017-Oct-13 21:59N 32°46' W 117°14'0 0.0
2017-Oct-13 21:23N 32°46' W 117°14'0 0.0
2017-Oct-13 20:29N 32°46' W 117°14'0 0.0
2017-Oct-13 19:59N 32°46' W 117°14'0 0.0
2017-Oct-13 19:29N 32°46' W 117°14'0 0.0
2017-Oct-13 18:53N 32°46' W 117°14'0 0.0
2017-Oct-13 18:29N 32°46' W 117°14'0 0.0
2017-Oct-13 17:53N 32°46' W 117°14'0 0.0
2017-Oct-13 17:23N 32°46' W 117°14'0 0.0
2017-Oct-13 16:59N 32°46' W 117°14'0 0.0
2017-Oct-13 16:29N 32°46' W 117°14'0 0.0
2017-Oct-13 15:41N 32°46' W 117°14'0 0.0
2017-Oct-13 15:29N 32°46' W 117°14'0 0.0
2017-Oct-13 14:59N 32°46' W 117°14'0 0.0
2017-Oct-13 14:29N 32°46' W 117°14'0 0.0
2017-Oct-13 13:59N 32°46' W 117°14'0 0.0
2017-Oct-13 13:29N 32°46' W 117°14'0 0.0
2017-Oct-13 12:59N 32°46' W 117°14'0 0.0
2017-Oct-13 12:23N 32°46' W 117°14'0 0.0
2017-Oct-13 11:59N 32°46' W 117°14'0 0.0
2017-Oct-13 11:29N 32°46' W 117°14'0 0.0
2017-Oct-13 10:59N 32°46' W 117°14'0 0.0
2017-Oct-13 10:29N 32°46' W 117°14'0 0.0
2017-Oct-13 09:59N 32°46' W 117°14'0 0.0
2017-Oct-13 09:29N 32°46' W 117°14'0 0.0
2017-Oct-13 08:59N 32°46' W 117°14'0 0.0
2017-Oct-13 08:29N 32°46' W 117°14'0 0.0
2017-Oct-13 07:59N 32°46' W 117°14'0 0.0
2017-Oct-13 07:29N 32°46' W 117°14'0 0.0
2017-Oct-13 06:59N 32°46' W 117°14'0 0.0
2017-Oct-13 06:29N 32°46' W 117°14'0 0.0
2017-Oct-13 05:47N 32°46' W 117°14'0 0.0
2017-Oct-13 05:29N 32°46' W 117°14'0 0.0
2017-Oct-13 04:53N 32°46' W 117°14'0 0.0
2017-Oct-13 04:29N 32°46' W 117°14'0 0.0
2017-Oct-13 03:23N 32°46' W 117°14'0 0.0
2017-Oct-13 02:53N 32°46' W 117°14'0 0.0
2017-Oct-13 02:23N 32°46' W 117°14'0 0.0
2017-Oct-13 01:11N 32°46' W 117°14'0 0.0
2017-Oct-13 00:23N 32°46' W 117°14'0 0.0
2017-Oct-12 23:53N 32°46' W 117°14'0 0.0
2017-Oct-12 23:29N 32°46' W 117°14'0 0.0
2017-Oct-12 22:59N 32°46' W 117°14'0 0.0
2017-Oct-12 22:29N 32°46' W 117°14'0 0.0
2017-Oct-12 21:53N 32°46' W 117°14'0 0.0
2017-Oct-12 21:29N 32°46' W 117°14'0 0.0
2017-Oct-12 20:05N 32°46' W 117°14'0 0.0
2017-Oct-12 19:53N 32°46' W 117°14'0 0.0
2017-Oct-12 19:23N 32°46' W 117°14'0 0.0
2017-Oct-12 18:59N 32°46' W 117°14'0 0.0
2017-Oct-12 17:35N 32°46' W 117°14'0 0.0
2017-Oct-12 17:17N 32°46' W 117°14'0 0.0
2017-Oct-12 16:59N 32°46' W 117°14'0 0.0
2017-Oct-12 16:17N 32°46' W 117°14'0 0.0
2017-Oct-12 15:47N 32°46' W 117°14'0 0.0
2017-Oct-12 15:29N 32°46' W 117°14'0 0.0
2017-Oct-12 14:53N 32°46' W 117°14'0 0.0
2017-Oct-12 14:23N 32°46' W 117°14'0 0.0
2017-Oct-12 13:59N 32°46' W 117°14'0 0.0
2017-Oct-12 13:29N 32°46' W 117°14'0 0.0
2017-Oct-12 12:59N 32°46' W 117°14'0 0.0
2017-Oct-12 12:23N 32°46' W 117°14'0 0.0
2017-Oct-12 11:53N 32°46' W 117°14'0 0.0
2017-Oct-12 11:17N 32°46' W 117°14'0 0.0
2017-Oct-12 10:59N 32°46' W 117°14'0 0.0
2017-Oct-12 10:29N 32°46' W 117°14'0 0.0
2017-Oct-12 09:59N 32°46' W 117°14'0 0.0
2017-Oct-12 09:29N 32°46' W 117°14'0 0.0
2017-Oct-12 08:53N 32°46' W 117°14'0 0.0
2017-Oct-12 08:23N 32°46' W 117°14'0 0.0
2017-Oct-12 07:53N 32°46' W 117°14'0 0.0
2017-Oct-12 07:29N 32°46' W 117°14'0 0.0
2017-Oct-12 06:53N 32°46' W 117°14'0 0.0
2017-Oct-12 06:29N 32°46' W 117°14'0 0.0
2017-Oct-12 05:05N 32°46' W 117°14'0 0.0
2017-Oct-12 04:47N 32°46' W 117°14'0 0.0
2017-Oct-12 04:29N 32°46' W 117°14'0 0.0
2017-Oct-12 03:53N 32°46' W 117°14'0 0.0
2017-Oct-12 03:23N 32°46' W 117°14'0 0.0
2017-Oct-12 02:53N 32°46' W 117°14'0 0.0
2017-Oct-12 02:11N 32°46' W 117°14'0 0.0
2017-Oct-12 01:59N 32°46' W 117°14'0 0.0
2017-Oct-12 00:23N 32°46' W 117°14'0 0.0
2017-Oct-11 23:59N 32°46' W 117°14'0 0.0
2017-Oct-11 23:23N 32°46' W 117°14'0 0.0
2017-Oct-11 22:59N 32°46' W 117°14'0 0.0
2017-Oct-11 21:41N 32°46' W 117°14'0 0.0
2017-Oct-11 20:23N 32°46' W 117°14'0 0.0
2017-Oct-11 19:53N 32°46' W 117°14'0 0.0
2017-Oct-11 19:23N 32°46' W 117°14'0 0.0
2017-Oct-11 18:53N 32°46' W 117°14'0 0.0
2017-Oct-11 18:11N 32°46' W 117°14'0 0.0
2017-Oct-11 17:53N 32°46' W 117°14'0 0.0
2017-Oct-11 17:29N 32°46' W 117°14'0 0.0
2017-Oct-11 16:53N 32°46' W 117°14'0 0.0
2017-Oct-10 23:59N 32°46' W 117°14'0 0.0
2017-Oct-10 23:11N 32°46' W 117°14'0 0.0
2017-Oct-10 22:59N 32°46' W 117°14'0 0.0
2017-Oct-10 22:29N 32°46' W 117°14'0 0.0
2017-Oct-10 21:41N 32°46' W 117°14'0 0.0
2017-Oct-10 21:29N 32°46' W 117°14'0 0.0
2017-Oct-10 20:59N 32°46' W 117°14'0 0.0
2017-Oct-10 20:26N 32°46' W 117°14'0 0.0
2017-Oct-10 19:53N 32°46' W 117°14'0 0.0
2017-Oct-10 19:29N 32°46' W 117°14'0 0.0
2017-Oct-10 18:59N 32°46' W 117°14'0 0.0
2017-Oct-10 18:23N 32°46' W 117°14'0 0.0
2017-Oct-10 17:59N 32°46' W 117°14'0 0.0
2017-Oct-10 17:29N 32°46' W 117°14'0 0.0
2017-Oct-10 16:59N 32°46' W 117°14'0 0.0
2017-Oct-10 16:29N 32°46' W 117°14'0 0.0
2017-Oct-10 15:59N 32°46' W 117°14'0 0.0
2017-Oct-10 15:29N 32°46' W 117°14'0 0.0
2017-Oct-10 14:59N 32°46' W 117°14'0 0.0
2017-Oct-10 13:53N 32°46' W 117°14'0 0.0
2017-Oct-10 13:29N 32°46' W 117°14'0 0.0
2017-Oct-10 12:59N 32°46' W 117°14'0 0.0
2017-Oct-10 12:29N 32°46' W 117°14'0 0.0
2017-Oct-10 11:59N 32°46' W 117°14'0 0.0
2017-Oct-10 11:29N 32°46' W 117°14'0 0.0
2017-Oct-10 10:59N 32°46' W 117°14'0 0.0
2017-Oct-10 10:29N 32°46' W 117°14'0 0.0
2017-Oct-10 09:59N 32°46' W 117°14'0 0.0
2017-Oct-10 09:29N 32°46' W 117°14'0 0.0
2017-Oct-10 08:59N 32°46' W 117°14'0 0.0
2017-Oct-10 08:29N 32°46' W 117°14'0 0.0
2017-Oct-10 07:56N 32°46' W 117°14'0 0.0
2017-Oct-10 07:23N 32°46' W 117°14'0 0.0
2017-Oct-10 06:59N 32°46' W 117°14'0 0.0
2017-Oct-10 06:23N 32°46' W 117°14'0 0.0
2017-Oct-10 05:53N 32°46' W 117°14'0 0.0
2017-Oct-10 05:29N 32°46' W 117°14'0 0.0
2017-Oct-10 04:53N 32°46' W 117°14'0 0.0
2017-Oct-10 04:29N 32°46' W 117°14'0 0.0
2017-Oct-10 02:59N 32°46' W 117°14'0 0.0
2017-Oct-10 02:23N 32°46' W 117°14'0 0.0
2017-Oct-10 01:59N 32°46' W 117°14'0 0.0
2017-Oct-10 01:23N 32°46' W 117°14'0 0.0
2017-Oct-10 00:53N 32°46' W 117°14'0 0.0
2017-Oct-10 00:29N 32°46' W 117°14'0 0.0
2017-Oct-09 23:59N 32°46' W 117°14'0 0.0
2017-Oct-09 23:23N 32°46' W 117°14'0 0.0
2017-Oct-09 22:53N 32°46' W 117°14'0 0.0
2017-Oct-09 22:17N 32°46' W 117°14'0 0.0
2017-Oct-09 21:47N 32°46' W 117°14'0 0.0
2017-Oct-09 20:17N 32°46' W 117°14'0 0.0
2017-Oct-09 19:59N 32°46' W 117°14'0 0.0
2017-Oct-09 18:47N 32°46' W 117°14'0 0.0
2017-Oct-09 18:29N 32°46' W 117°14'0 0.0
2017-Oct-09 17:59N 32°46' W 117°14'0 0.0
2017-Oct-09 17:29N 32°46' W 117°14'0 0.0
2017-Oct-09 16:59N 32°46' W 117°14'0 0.0
2017-Oct-09 16:23N 32°46' W 117°14'0 0.0
2017-Oct-09 15:59N 32°46' W 117°14'0 0.0
2017-Oct-09 15:29N 32°46' W 117°14'0 0.0
2017-Oct-09 14:59N 32°46' W 117°14'0 0.0
2017-Oct-09 14:29N 32°46' W 117°14'0 0.0
2017-Oct-09 13:59N 32°46' W 117°14'0 0.0
2017-Oct-09 13:29N 32°46' W 117°14'0 0.0
2017-Oct-09 12:05N 32°46' W 117°14'0 0.0
2017-Oct-09 11:47N 32°46' W 117°14'0 0.0
2017-Oct-09 11:29N 32°46' W 117°14'0 0.0
2017-Oct-09 10:53N 32°46' W 117°14'0 0.0
2017-Oct-09 10:29N 32°46' W 117°14'0 0.0
2017-Oct-09 09:59N 32°46' W 117°14'0 0.0
2017-Oct-09 09:29N 32°46' W 117°14'0 0.0
2017-Oct-09 08:59N 32°46' W 117°14'0 0.0
2017-Oct-09 08:29N 32°46' W 117°14'0 0.0
2017-Oct-09 07:53N 32°46' W 117°14'0 0.0
2017-Oct-09 07:29N 32°46' W 117°14'0 0.0
2017-Oct-09 06:53N 32°46' W 117°14'0 0.0
2017-Oct-09 06:17N 32°46' W 117°14'0 0.0
2017-Oct-09 05:59N 32°46' W 117°14'0 0.0
2017-Oct-09 04:59N 32°46' W 117°14'0 0.0
2017-Oct-09 04:23N 32°46' W 117°14'0 0.0
2017-Oct-09 03:59N 32°46' W 117°14'0 0.0
2017-Oct-09 03:29N 32°46' W 117°14'0 0.0
2017-Oct-09 02:59N 32°46' W 117°14'0 0.0
2017-Oct-09 02:29N 32°46' W 117°14'0 0.0
2017-Oct-09 01:59N 32°46' W 117°14'0 0.0
2017-Oct-09 01:29N 32°46' W 117°14'0 0.0
2017-Oct-09 00:53N 32°46' W 117°14'0 0.0
2017-Oct-09 00:17N 32°46' W 117°14'0 0.0
2017-Oct-08 23:59N 32°46' W 117°14'0 0.0
2017-Oct-08 23:29N 32°46' W 117°14'0 0.0
2017-Oct-08 22:41N 32°46' W 117°14'0 0.0
2017-Oct-08 21:23N 32°46' W 117°14'0 0.0
2017-Oct-08 20:59N 32°46' W 117°14'0 0.0
2017-Oct-08 20:11N 32°46' W 117°14'0 0.0
2017-Oct-08 19:59N 32°46' W 117°14'0 0.0
2017-Oct-08 19:29N 32°46' W 117°14'0 0.0
2017-Oct-08 18:59N 32°46' W 117°14'0 0.0
2017-Oct-08 18:23N 32°46' W 117°14'0 0.0
2017-Oct-08 17:53N 32°46' W 117°14'0 0.0
2017-Oct-08 17:29N 32°46' W 117°14'0 0.0
2017-Oct-08 16:59N 32°46' W 117°14'0 0.0
2017-Oct-08 16:11N 32°46' W 117°14'0 0.0
2017-Oct-08 15:59N 32°46' W 117°14'0 0.0
2017-Oct-08 14:11N 32°46' W 117°14'0 0.0
2017-Oct-08 13:47N 32°46' W 117°14'0 0.0
2017-Oct-08 13:23N 32°46' W 117°14'0 0.0
2017-Oct-08 12:59N 32°46' W 117°14'0 0.0
2017-Oct-08 12:29N 32°46' W 117°14'0 0.0
2017-Oct-08 11:59N 32°46' W 117°14'0 0.0
2017-Oct-08 11:29N 32°46' W 117°14'0 0.0
2017-Oct-08 10:35N 32°46' W 117°14'0 0.0
2017-Oct-08 10:23N 32°46' W 117°14'0 0.0
2017-Oct-08 09:53N 32°46' W 117°14'0 0.0
2017-Oct-08 09:26N 32°46' W 117°14'0 0.0
2017-Oct-08 08:59N 32°46' W 117°14'0 0.0
2017-Oct-08 08:29N 32°46' W 117°14'0 0.0
2017-Oct-08 07:53N 32°46' W 117°14'0 0.0
2017-Oct-08 07:29N 32°46' W 117°14'0 0.0
2017-Oct-08 06:59N 32°46' W 117°14'0 0.0
2017-Oct-08 06:29N 32°46' W 117°14'0 0.0
2017-Oct-08 05:59N 32°46' W 117°14'0 0.0
2017-Oct-08 05:29N 32°46' W 117°14'0 0.0
2017-Oct-08 04:59N 32°46' W 117°14'0 0.0
2017-Oct-08 04:29N 32°46' W 117°14'0 0.0
2017-Oct-08 03:41N 32°46' W 117°14'0 0.0
2017-Oct-08 03:29N 32°46' W 117°14'0 0.0
2017-Oct-08 02:53N 32°46' W 117°14'0 0.0
2017-Oct-08 02:29N 32°46' W 117°14'0 0.0
2017-Oct-08 01:59N 32°46' W 117°14'0 0.0
2017-Oct-08 01:26N 32°46' W 117°14'0 0.0
2017-Oct-08 00:59N 32°46' W 117°14'0 0.0
2017-Oct-08 00:29N 32°46' W 117°14'0 0.0
2017-Oct-07 23:56N 32°46' W 117°14'0 0.0
2017-Oct-07 23:23N 32°46' W 117°14'  
Track history (hours):
 
Tides and Currents Weather Stations Pressure Air Temp Water Temp Dewpoint Dewpoint Depression Visibility Wind Speed Wind Dir Waves Ship Positions

Legasea

Last reported at 2017-Oct-17 18:35 UTC. Time now 2017-Oct-19 03:53 UTC.
Position N 32°29' W 117°36'.

Type: Pleasure craft. MMSI: 338301307.

Date/timePositionNaut miles runAvg speedWind from/ knotsBaromVisibWave heightAir tempDewpointWater temp
2017-Oct-17 18:35N 32°29' W 117°36'1 6.5
2017-Oct-17 18:27N 32°29' W 117°35'2 3.0
2017-Oct-17 17:50N 32°31' W 117°35'2 5.0
2017-Oct-17 17:28N 32°31' W 117°38'3 6.8
2017-Oct-17 17:00N 32°31' W 117°41'13 5.2
2017-Oct-17 14:36N 32°43' W 117°37'2 7.5
2017-Oct-17 14:20N 32°43' W 117°35'3 9.3
2017-Oct-17 14:00N 32°44' W 117°31'5 9.5
2017-Oct-17 13:30N 32°44' W 117°25'5 9.1
2017-Oct-17 13:00N 32°44' W 117°20'5 0.1
2017-Oct-15 18:05N 32°46' W 117°14'0 0.0
2017-Oct-15 17:47N 32°46' W 117°14'0 0.0
2017-Oct-15 17:11N 32°46' W 117°14'0 0.0
2017-Oct-15 16:53N 32°46' W 117°14'0 0.0
2017-Oct-15 16:29N 32°46' W 117°14'0 0.0
2017-Oct-15 15:59N 32°46' W 117°14'0 0.0
2017-Oct-15 15:29N 32°46' W 117°14'0 0.0
2017-Oct-15 14:59N 32°46' W 117°14'0 0.0
2017-Oct-15 13:59N 32°46' W 117°14'0 0.0
2017-Oct-15 13:29N 32°46' W 117°14'0 0.0
2017-Oct-15 12:59N 32°46' W 117°14'0 0.0
2017-Oct-15 12:29N 32°46' W 117°14'0 0.0
2017-Oct-15 11:59N 32°46' W 117°14'0 0.0
2017-Oct-15 11:23N 32°46' W 117°14'0 0.0
2017-Oct-15 10:59N 32°46' W 117°14'0 0.0
2017-Oct-15 10:29N 32°46' W 117°14'0 0.0
2017-Oct-15 09:59N 32°46' W 117°14'0 0.0
2017-Oct-15 09:29N 32°46' W 117°14'0 0.0
2017-Oct-15 08:59N 32°46' W 117°14'0 0.0
2017-Oct-15 08:29N 32°46' W 117°14'0 0.0
2017-Oct-15 07:59N 32°46' W 117°14'0 0.0
2017-Oct-15 07:20N 32°46' W 117°14'0 0.0
2017-Oct-15 06:59N 32°46' W 117°14'0 0.0
2017-Oct-15 06:29N 32°46' W 117°14'0 0.0
2017-Oct-15 05:56N 32°46' W 117°14'0 0.0
2017-Oct-15 05:23N 32°46' W 117°14'0 0.0
2017-Oct-15 04:59N 32°46' W 117°14'0 0.0
2017-Oct-15 04:29N 32°46' W 117°14'0 0.0
2017-Oct-15 03:59N 32°46' W 117°14'0 0.0
2017-Oct-15 03:29N 32°46' W 117°14'0 0.0
2017-Oct-15 02:53N 32°46' W 117°14'0 0.0
2017-Oct-15 02:29N 32°46' W 117°14'0 0.0
2017-Oct-15 01:53N 32°46' W 117°14'0 0.0
2017-Oct-15 01:23N 32°46' W 117°14'0 0.0
2017-Oct-15 00:59N 32°46' W 117°14'0 0.0
2017-Oct-15 00:29N 32°46' W 117°14'0 0.0
2017-Oct-14 23:59N 32°46' W 117°14'0 0.0
2017-Oct-14 23:29N 32°46' W 117°14'0 0.0
2017-Oct-14 22:59N 32°46' W 117°14'0 0.0
2017-Oct-14 22:29N 32°46' W 117°14'0 0.0
2017-Oct-14 21:41N 32°46' W 117°14'0 0.0
2017-Oct-14 21:23N 32°46' W 117°14'0 0.0
2017-Oct-14 20:47N 32°46' W 117°14'0 0.0
2017-Oct-14 19:47N 32°46' W 117°14'0 0.0
2017-Oct-14 19:29N 32°46' W 117°14'0 0.0
2017-Oct-14 18:29N 32°46' W 117°14'0 0.0
2017-Oct-14 17:59N 32°46' W 117°14'0 0.0
2017-Oct-14 17:29N 32°46' W 117°14'0 0.0
2017-Oct-14 16:59N 32°46' W 117°14'0 0.0
2017-Oct-14 16:23N 32°46' W 117°14'0 0.0
2017-Oct-14 15:59N 32°46' W 117°14'0 0.0
2017-Oct-14 15:29N 32°46' W 117°14'0 0.0
2017-Oct-14 14:53N 32°46' W 117°14'0 0.0
2017-Oct-14 14:23N 32°46' W 117°14'0 0.0
2017-Oct-14 13:59N 32°46' W 117°14'0 0.0
2017-Oct-14 13:23N 32°46' W 117°14'0 0.0
2017-Oct-14 12:41N 32°46' W 117°14'0 0.0
2017-Oct-14 12:23N 32°46' W 117°14'0 0.0
2017-Oct-14 11:59N 32°46' W 117°14'0 0.0
2017-Oct-14 11:17N 32°46' W 117°14'0 0.0
2017-Oct-14 10:47N 32°46' W 117°14'0 0.0
2017-Oct-14 10:29N 32°46' W 117°14'0 0.0
2017-Oct-14 09:59N 32°46' W 117°14'0 0.0
2017-Oct-14 09:29N 32°46' W 117°14'0 0.0
2017-Oct-14 08:23N 32°46' W 117°14'0 0.0
2017-Oct-14 07:59N 32°46' W 117°14'0 0.0
2017-Oct-14 07:29N 32°46' W 117°14'0 0.0
2017-Oct-14 06:53N 32°46' W 117°14'0 0.0
2017-Oct-14 06:17N 32°46' W 117°14'0 0.0
2017-Oct-14 05:47N 32°46' W 117°14'0 0.0
2017-Oct-14 05:29N 32°46' W 117°14'0 0.0
2017-Oct-14 04:35N 32°46' W 117°14'0 0.0
2017-Oct-14 04:17N 32°46' W 117°14'0 0.0
2017-Oct-14 03:53N 32°46' W 117°14'0 0.0
2017-Oct-14 03:29N 32°46' W 117°14'0 0.0
2017-Oct-14 02:53N 32°46' W 117°14'0 0.0
2017-Oct-14 02:29N 32°46' W 117°14'0 0.0
2017-Oct-14 01:59N 32°46' W 117°14'0 0.0
2017-Oct-14 01:29N 32°46' W 117°14'0 0.0
2017-Oct-14 00:59N 32°46' W 117°14'0 0.0
2017-Oct-14 00:29N 32°46' W 117°14'0 0.0
2017-Oct-13 23:47N 32°46' W 117°14'0 0.0
2017-Oct-13 23:23N 32°46' W 117°14'0 0.0
2017-Oct-13 22:47N 32°46' W 117°14'0 0.0
2017-Oct-13 22:29N 32°46' W 117°14'0 0.0
2017-Oct-13 21:59N 32°46' W 117°14'0 0.0
2017-Oct-13 21:23N 32°46' W 117°14'0 0.0
2017-Oct-13 20:29N 32°46' W 117°14'0 0.0
2017-Oct-13 19:59N 32°46' W 117°14'0 0.0
2017-Oct-13 19:29N 32°46' W 117°14'0 0.0
2017-Oct-13 18:53N 32°46' W 117°14'0 0.0
2017-Oct-13 18:29N 32°46' W 117°14'0 0.0
2017-Oct-13 17:53N 32°46' W 117°14'0 0.0
2017-Oct-13 17:23N 32°46' W 117°14'0 0.0
2017-Oct-13 16:59N 32°46' W 117°14'0 0.0
2017-Oct-13 16:29N 32°46' W 117°14'0 0.0
2017-Oct-13 15:41N 32°46' W 117°14'0 0.0
2017-Oct-13 15:29N 32°46' W 117°14'0 0.0
2017-Oct-13 14:59N 32°46' W 117°14'0 0.0
2017-Oct-13 14:29N 32°46' W 117°14'0 0.0
2017-Oct-13 13:59N 32°46' W 117°14'0 0.0
2017-Oct-13 13:29N 32°46' W 117°14'0 0.0
2017-Oct-13 12:59N 32°46' W 117°14'0 0.0
2017-Oct-13 12:23N 32°46' W 117°14'0 0.0
2017-Oct-13 11:59N 32°46' W 117°14'0 0.0
2017-Oct-13 11:29N 32°46' W 117°14'0 0.0
2017-Oct-13 10:59N 32°46' W 117°14'0 0.0
2017-Oct-13 10:29N 32°46' W 117°14'0 0.0
2017-Oct-13 09:59N 32°46' W 117°14'0 0.0
2017-Oct-13 09:29N 32°46' W 117°14'0 0.0
2017-Oct-13 08:59N 32°46' W 117°14'0 0.0
2017-Oct-13 08:29N 32°46' W 117°14'0 0.0
2017-Oct-13 07:59N 32°46' W 117°14'0 0.0
2017-Oct-13 07:29N 32°46' W 117°14'0 0.0
2017-Oct-13 06:59N 32°46' W 117°14'0 0.0
2017-Oct-13 06:29N 32°46' W 117°14'0 0.0
2017-Oct-13 05:47N 32°46' W 117°14'0 0.0
2017-Oct-13 05:29N 32°46' W 117°14'0 0.0
2017-Oct-13 04:53N 32°46' W 117°14'0 0.0
2017-Oct-13 04:29N 32°46' W 117°14'0 0.0
2017-Oct-13 03:23N 32°46' W 117°14'0 0.0
2017-Oct-13 02:53N 32°46' W 117°14'0 0.0
2017-Oct-13 02:23N 32°46' W 117°14'0 0.0
2017-Oct-13 01:11N 32°46' W 117°14'0 0.0
2017-Oct-13 00:23N 32°46' W 117°14'0 0.0
2017-Oct-12 23:53N 32°46' W 117°14'0 0.0
2017-Oct-12 23:29N 32°46' W 117°14'0 0.0
2017-Oct-12 22:59N 32°46' W 117°14'0 0.0
2017-Oct-12 22:29N 32°46' W 117°14'0 0.0
2017-Oct-12 21:53N 32°46' W 117°14'0 0.0
2017-Oct-12 21:29N 32°46' W 117°14'0 0.0
2017-Oct-12 20:05N 32°46' W 117°14'0 0.0
2017-Oct-12 19:53N 32°46' W 117°14'0 0.0
2017-Oct-12 19:23N 32°46' W 117°14'0 0.0
2017-Oct-12 18:59N 32°46' W 117°14'0 0.0
2017-Oct-12 17:35N 32°46' W 117°14'0 0.0
2017-Oct-12 17:17N 32°46' W 117°14'0 0.0
2017-Oct-12 16:59N 32°46' W 117°14'0 0.0
2017-Oct-12 16:17N 32°46' W 117°14'0 0.0
2017-Oct-12 15:47N 32°46' W 117°14'0 0.0
2017-Oct-12 15:29N 32°46' W 117°14'0 0.0
2017-Oct-12 14:53N 32°46' W 117°14'0 0.0
2017-Oct-12 14:23N 32°46' W 117°14'0 0.0
2017-Oct-12 13:59N 32°46' W 117°14'0 0.0
2017-Oct-12 13:29N 32°46' W 117°14'0 0.0
2017-Oct-12 12:59N 32°46' W 117°14'0 0.0
2017-Oct-12 12:23N 32°46' W 117°14'0 0.0
2017-Oct-12 11:53N 32°46' W 117°14'0 0.0
2017-Oct-12 11:17N 32°46' W 117°14'0 0.0
2017-Oct-12 10:59N 32°46' W 117°14'0 0.0
2017-Oct-12 10:29N 32°46' W 117°14'0 0.0
2017-Oct-12 09:59N 32°46' W 117°14'0 0.0
2017-Oct-12 09:29N 32°46' W 117°14'0 0.0
2017-Oct-12 08:53N 32°46' W 117°14'0 0.0
2017-Oct-12 08:23N 32°46' W 117°14'0 0.0
2017-Oct-12 07:53N 32°46' W 117°14'0 0.0
2017-Oct-12 07:29N 32°46' W 117°14'0 0.0
2017-Oct-12 06:53N 32°46' W 117°14'0 0.0
2017-Oct-12 06:29N 32°46' W 117°14'0 0.0
2017-Oct-12 05:05N 32°46' W 117°14'0 0.0
2017-Oct-12 04:47N 32°46' W 117°14'0 0.0
2017-Oct-12 04:29N 32°46' W 117°14'0 0.0
2017-Oct-12 03:53N 32°46' W 117°14'0 0.0
2017-Oct-12 03:23N 32°46' W 117°14'0 0.0
2017-Oct-12 02:53N 32°46' W 117°14'0 0.0
2017-Oct-12 02:11N 32°46' W 117°14'0 0.0
2017-Oct-12 01:59N 32°46' W 117°14'0 0.0
2017-Oct-12 00:23N 32°46' W 117°14'0 0.0
2017-Oct-11 23:59N 32°46' W 117°14'0 0.0
2017-Oct-11 23:23N 32°46' W 117°14'0 0.0
2017-Oct-11 22:59N 32°46' W 117°14'0 0.0
2017-Oct-11 21:41N 32°46' W 117°14'0 0.0
2017-Oct-11 20:23N 32°46' W 117°14'0 0.0
2017-Oct-11 19:53N 32°46' W 117°14'0 0.0
2017-Oct-11 19:23N 32°46' W 117°14'0 0.0
2017-Oct-11 18:53N 32°46' W 117°14'0 0.0
2017-Oct-11 18:11N 32°46' W 117°14'0 0.0
2017-Oct-11 17:53N 32°46' W 117°14'0 0.0
2017-Oct-11 17:29N 32°46' W 117°14'0 0.0
2017-Oct-11 16:53N 32°46' W 117°14'0 0.0
2017-Oct-10 23:59N 32°46' W 117°14'0 0.0
2017-Oct-10 23:11N 32°46' W 117°14'0 0.0
2017-Oct-10 22:59N 32°46' W 117°14'0 0.0
2017-Oct-10 22:29N 32°46' W 117°14'0 0.0
2017-Oct-10 21:41N 32°46' W 117°14'0 0.0
2017-Oct-10 21:29N 32°46' W 117°14'0 0.0
2017-Oct-10 20:59N 32°46' W 117°14'0 0.0
2017-Oct-10 20:26N 32°46' W 117°14'0 0.0
2017-Oct-10 19:53N 32°46' W 117°14'0 0.0
2017-Oct-10 19:29N 32°46' W 117°14'0 0.0
2017-Oct-10 18:59N 32°46' W 117°14'0 0.0
2017-Oct-10 18:23N 32°46' W 117°14'0 0.0
2017-Oct-10 17:59N 32°46' W 117°14'0 0.0
2017-Oct-10 17:29N 32°46' W 117°14'0 0.0
2017-Oct-10 16:59N 32°46' W 117°14'0 0.0
2017-Oct-10 16:29N 32°46' W 117°14'0 0.0
2017-Oct-10 15:59N 32°46' W 117°14'0 0.0
2017-Oct-10 15:29N 32°46' W 117°14'0 0.0
2017-Oct-10 14:59N 32°46' W 117°14'0 0.0
2017-Oct-10 13:53N 32°46' W 117°14'0 0.0
2017-Oct-10 13:29N 32°46' W 117°14'0 0.0
2017-Oct-10 12:59N 32°46' W 117°14'0 0.0
2017-Oct-10 12:29N 32°46' W 117°14'0 0.0
2017-Oct-10 11:59N 32°46' W 117°14'0 0.0
2017-Oct-10 11:29N 32°46' W 117°14'0 0.0
2017-Oct-10 10:59N 32°46' W 117°14'0 0.0
2017-Oct-10 10:29N 32°46' W 117°14'0 0.0
2017-Oct-10 09:59N 32°46' W 117°14'0 0.0
2017-Oct-10 09:29N 32°46' W 117°14'0 0.0
2017-Oct-10 08:59N 32°46' W 117°14'0 0.0
2017-Oct-10 08:29N 32°46' W 117°14'0 0.0
2017-Oct-10 07:56N 32°46' W 117°14'0 0.0
2017-Oct-10 07:23N 32°46' W 117°14'0 0.0
2017-Oct-10 06:59N 32°46' W 117°14'0 0.0
2017-Oct-10 06:23N 32°46' W 117°14'0 0.0
2017-Oct-10 05:53N 32°46' W 117°14'0 0.0
2017-Oct-10 05:29N 32°46' W 117°14'0 0.0
2017-Oct-10 04:53N 32°46' W 117°14'0 0.0
2017-Oct-10 04:29N 32°46' W 117°14'0 0.0
2017-Oct-10 02:59N 32°46' W 117°14'0 0.0
2017-Oct-10 02:23N 32°46' W 117°14'0 0.0
2017-Oct-10 01:59N 32°46' W 117°14'0 0.0
2017-Oct-10 01:23N 32°46' W 117°14'0 0.0
2017-Oct-10 00:53N 32°46' W 117°14'0 0.0
2017-Oct-10 00:29N 32°46' W 117°14'0 0.0
2017-Oct-09 23:59N 32°46' W 117°14'0 0.0
2017-Oct-09 23:23N 32°46' W 117°14'0 0.0
2017-Oct-09 22:53N 32°46' W 117°14'0 0.0
2017-Oct-09 22:17N 32°46' W 117°14'0 0.0
2017-Oct-09 21:47N 32°46' W 117°14'0 0.0
2017-Oct-09 20:17N 32°46' W 117°14'0 0.0
2017-Oct-09 19:59N 32°46' W 117°14'0 0.0
2017-Oct-09 18:47N 32°46' W 117°14'0 0.0
2017-Oct-09 18:29N 32°46' W 117°14'0 0.0
2017-Oct-09 17:59N 32°46' W 117°14'0 0.0
2017-Oct-09 17:29N 32°46' W 117°14'0 0.0
2017-Oct-09 16:59N 32°46' W 117°14'0 0.0
2017-Oct-09 16:23N 32°46' W 117°14'0 0.0
2017-Oct-09 15:59N 32°46' W 117°14'0 0.0
2017-Oct-09 15:29N 32°46' W 117°14'0 0.0
2017-Oct-09 14:59N 32°46' W 117°14'0 0.0
2017-Oct-09 14:29N 32°46' W 117°14'0 0.0
2017-Oct-09 13:59N 32°46' W 117°14'0 0.0
2017-Oct-09 13:29N 32°46' W 117°14'0 0.0
2017-Oct-09 12:05N 32°46' W 117°14'0 0.0
2017-Oct-09 11:47N 32°46' W 117°14'0 0.0
2017-Oct-09 11:29N 32°46' W 117°14'0 0.0
2017-Oct-09 10:53N 32°46' W 117°14'0 0.0
2017-Oct-09 10:29N 32°46' W 117°14'0 0.0
2017-Oct-09 09:59N 32°46' W 117°14'0 0.0
2017-Oct-09 09:29N 32°46' W 117°14'0 0.0
2017-Oct-09 08:59N 32°46' W 117°14'0 0.0
2017-Oct-09 08:29N 32°46' W 117°14'0 0.0
2017-Oct-09 07:53N 32°46' W 117°14'0 0.0
2017-Oct-09 07:29N 32°46' W 117°14'0 0.0
2017-Oct-09 06:53N 32°46' W 117°14'0 0.0
2017-Oct-09 06:17N 32°46' W 117°14'0 0.0
2017-Oct-09 05:59N 32°46' W 117°14'0 0.0
2017-Oct-09 04:59N 32°46' W 117°14'0 0.0
2017-Oct-09 04:23N 32°46' W 117°14'0 0.0
2017-Oct-09 03:59N 32°46' W 117°14'0 0.0
2017-Oct-09 03:29N 32°46' W 117°14'0 0.0
2017-Oct-09 02:59N 32°46' W 117°14'0 0.0
2017-Oct-09 02:29N 32°46' W 117°14'0 0.0
2017-Oct-09 01:59N 32°46' W 117°14'0 0.0
2017-Oct-09 01:29N 32°46' W 117°14'0 0.0
2017-Oct-09 00:53N 32°46' W 117°14'0 0.0
2017-Oct-09 00:17N 32°46' W 117°14'0 0.0
2017-Oct-08 23:59N 32°46' W 117°14'0 0.0
2017-Oct-08 23:29N 32°46' W 117°14'0 0.0
2017-Oct-08 22:41N 32°46' W 117°14'0 0.0
2017-Oct-08 21:23N 32°46' W 117°14'0 0.0
2017-Oct-08 20:59N 32°46' W 117°14'0 0.0
2017-Oct-08 20:11N 32°46' W 117°14'0 0.0
2017-Oct-08 19:59N 32°46' W 117°14'0 0.0
2017-Oct-08 19:29N 32°46' W 117°14'0 0.0
2017-Oct-08 18:59N 32°46' W 117°14'0 0.0
2017-Oct-08 18:23N 32°46' W 117°14'0 0.0
2017-Oct-08 17:53N 32°46' W 117°14'0 0.0
2017-Oct-08 17:29N 32°46' W 117°14'0 0.0
2017-Oct-08 16:59N 32°46' W 117°14'0 0.0
2017-Oct-08 16:11N 32°46' W 117°14'0 0.0
2017-Oct-08 15:59N 32°46' W 117°14'0 0.0
2017-Oct-08 14:11N 32°46' W 117°14'0 0.0
2017-Oct-08 13:47N 32°46' W 117°14'0 0.0
2017-Oct-08 13:23N 32°46' W 117°14'0 0.0
2017-Oct-08 12:59N 32°46' W 117°14'0 0.0
2017-Oct-08 12:29N 32°46' W 117°14'0 0.0
2017-Oct-08 11:59N 32°46' W 117°14'0 0.0
2017-Oct-08 11:29N 32°46' W 117°14'0 0.0
2017-Oct-08 10:35N 32°46' W 117°14'0 0.0
2017-Oct-08 10:23N 32°46' W 117°14'0 0.0
2017-Oct-08 09:53N 32°46' W 117°14'0 0.0
2017-Oct-08 09:26N 32°46' W 117°14'0 0.0
2017-Oct-08 08:59N 32°46' W 117°14'0 0.0
2017-Oct-08 08:29N 32°46' W 117°14'0 0.0
2017-Oct-08 07:53N 32°46' W 117°14'0 0.0
2017-Oct-08 07:29N 32°46' W 117°14'0 0.0
2017-Oct-08 06:59N 32°46' W 117°14'0 0.0
2017-Oct-08 06:29N 32°46' W 117°14'0 0.0
2017-Oct-08 05:59N 32°46' W 117°14'0 0.0
2017-Oct-08 05:29N 32°46' W 117°14'0 0.0
2017-Oct-08 04:59N 32°46' W 117°14'0 0.0
2017-Oct-08 04:29N 32°46' W 117°14'0 0.0
2017-Oct-08 03:41N 32°46' W 117°14'0 0.0
2017-Oct-08 03:29N 32°46' W 117°14'0 0.0
2017-Oct-08 02:53N 32°46' W 117°14'0 0.0
2017-Oct-08 02:29N 32°46' W 117°14'0 0.0
2017-Oct-08 01:59N 32°46' W 117°14'0 0.0
2017-Oct-08 01:26N 32°46' W 117°14'0 0.0
2017-Oct-08 00:59N 32°46' W 117°14'0 0.0
2017-Oct-08 00:29N 32°46' W 117°14'0 0.0
2017-Oct-07 23:56N 32°46' W 117°14'0 0.0
2017-Oct-07 23:23N 32°46' W 117°14'  

Dump ship's entire track history